Time;durP1;ratioP1;P1;durP2;ratioP2;P2;SDS_P1;SDS_P2;PMS_P1;PMS_P2;Temp;Humidity;BMP_temperature;BMP_pressure;BME280_temperature;BME280_humidity;BME280_pressure;Samples;Min_cycle;Max_cycle;Signal;HPM_P1;HPM_P2
2021/07/25 00:00:57;;;;;;;24.13;21.50;;;19.40;99.90;;;;;;5037157;28;20037;-81
2021/07/25 00:03:24;;;;;;;25.30;21.48;;;19.40;99.90;;;;;;4992098;28;20493;-81
2021/07/25 00:05:50;;;;;;;24.58;21.98;;;19.40;99.90;;;;;;5024958;28;20044;-81
2021/07/25 00:08:17;;;;;;;23.48;20.98;;;19.30;99.90;;;;;;5026339;28;20067;-81
2021/07/25 00:10:46;;;;;;;24.85;21.58;;;19.30;99.90;;;;;;5016471;28;20041;-81
2021/07/25 00:13:16;;;;;;;25.30;22.00;;;19.30;99.90;;;;;;5019555;28;20049;-82
2021/07/25 00:15:43;;;;;;;29.20;25.30;;;19.40;99.90;;;;;;5036066;28;20029;-82
2021/07/25 00:18:10;;;;;;;26.50;23.73;;;19.40;99.90;;;;;;5023899;28;20048;-81
2021/07/25 00:20:37;;;;;;;27.50;23.17;;;19.40;99.90;;;;;;5036808;28;20045;-83
2021/07/25 00:23:03;;;;;;;24.15;21.60;;;19.40;99.90;;;;;;5025027;28;20028;-83
2021/07/25 00:25:30;;;;;;;26.95;23.30;;;19.40;99.90;;;;;;4994366;28;20052;-82
2021/07/25 00:27:56;;;;;;;30.50;26.52;;;19.40;99.90;;;;;;5010855;28;20049;-81
2021/07/25 00:30:24;;;;;;;27.40;23.77;;;19.30;99.90;;;;;;4995461;28;20037;-82
2021/07/25 00:33:00;;;;;;;26.85;24.02;;;19.30;99.90;;;;;;5018792;28;20056;-81
2021/07/25 00:35:27;;;;;;;27.63;24.70;;;19.30;99.90;;;;;;5025618;28;20045;-81
2021/07/25 00:37:53;;;;;;;27.67;23.85;;;19.30;99.90;;;;;;4998613;28;20045;-81
2021/07/25 00:40:42;;;;;;;25.70;23.00;;;19.30;99.90;;;;;;4993354;28;20044;-80
2021/07/25 00:43:08;;;;;;;27.02;22.92;;;19.30;99.90;;;;;;5024178;28;20037;-84
2021/07/25 00:45:37;;;;;;;29.17;26.17;;;19.30;99.90;;;;;;4993608;28;20049;-81
2021/07/25 00:48:04;;;;;;;31.65;26.63;;;19.30;99.90;;;;;;5011700;28;20056;-82
2021/07/25 00:50:31;;;;;;;27.55;24.10;;;19.30;99.90;;;;;;5033765;28;20045;-82
2021/07/25 00:52:57;;;;;;;28.15;24.70;;;19.30;99.90;;;;;;4979517;28;20056;-82
2021/07/25 00:55:24;;;;;;;28.00;24.80;;;19.30;99.90;;;;;;5027276;28;20041;-84
2021/07/25 00:57:52;;;;;;;23.58;21.02;;;19.30;99.90;;;;;;5024223;28;20432;-84
2021/07/25 01:00:19;;;;;;;26.33;23.42;;;19.30;99.90;;;;;;5033196;28;20481;-84
2021/07/25 01:03:19;;;;;;;28.35;25.08;;;19.30;99.90;;;;;;5001974;28;20041;-83
2021/07/25 01:06:01;;;;;;;27.70;24.65;;;19.30;99.90;;;;;;5041342;28;20041;-83
2021/07/25 01:08:38;;;;;;;24.95;22.35;;;19.30;99.90;;;;;;5044278;28;20041;-83
2021/07/25 01:11:06;;;;;;;36.38;31.40;;;19.30;99.90;;;;;;5043767;28;20047;-83
2021/07/25 01:13:37;;;;;;;27.52;23.63;;;19.30;99.90;;;;;;5016704;28;20060;-83
2021/07/25 01:16:04;;;;;;;26.73;23.90;;;19.30;99.90;;;;;;5043812;28;20045;-83
2021/07/25 01:18:30;;;;;;;28.15;24.30;;;19.20;99.90;;;;;;5000820;28;20057;-83
2021/07/25 01:20:57;;;;;;;29.13;24.05;;;19.20;99.90;;;;;;5020661;28;20403;-84
2021/07/25 01:23:24;;;;;;;28.42;24.35;;;19.20;99.90;;;;;;5019723;28;20052;-83
2021/07/25 01:25:55;;;;;;;27.05;23.70;;;19.10;99.90;;;;;;5043794;28;20029;-84
2021/07/25 01:28:29;;;;;;;26.73;23.85;;;19.10;99.90;;;;;;5041909;28;20508;-84
2021/07/25 01:30:58;;;;;;;26.35;23.52;;;19.10;99.90;;;;;;5042310;28;20492;-83
2021/07/25 01:33:28;;;;;;;27.67;24.67;;;19.10;99.90;;;;;;5031078;28;20059;-83
2021/07/25 01:35:57;;;;;;;27.73;24.75;;;19.10;99.90;;;;;;5043073;28;20052;-84
2021/07/25 01:38:27;;;;;;;26.00;23.20;;;19.10;99.90;;;;;;5044791;28;20048;-84
2021/07/25 01:41:24;;;;;;;26.90;23.98;;;19.10;99.90;;;;;;5044240;28;20044;-84
2021/07/25 01:43:51;;;;;;;25.27;22.50;;;19.10;99.90;;;;;;5038511;28;20384;-83
2021/07/25 01:46:18;;;;;;;27.02;23.63;;;19.00;99.90;;;;;;5027201;28;20037;-83
2021/07/25 01:48:45;;;;;;;30.40;26.35;;;19.00;99.90;;;;;;5028517;28;20415;-84
2021/07/25 01:51:13;;;;;;;24.83;22.13;;;19.00;99.90;;;;;;5019010;28;20041;-82
2021/07/25 01:53:40;;;;;;;26.02;22.88;;;19.00;99.90;;;;;;5009006;28;20049;-82
2021/07/25 01:56:07;;;;;;;24.65;22.00;;;19.00;99.90;;;;;;5016733;28;20056;-82
2021/07/25 01:58:33;;;;;;;27.15;22.90;;;19.00;99.90;;;;;;5011582;28;20510;-83
2021/07/25 02:01:00;;;;;;;28.48;24.42;;;19.00;99.90;;;;;;5025898;28;20047;-82
2021/07/25 02:03:28;;;;;;;21.70;19.33;;;19.00;99.90;;;;;;4993635;28;20041;-82
2021/07/25 02:05:55;;;;;;;24.83;20.55;;;19.00;99.90;;;;;;5010455;28;20042;-82
2021/07/25 02:08:22;;;;;;;27.90;24.77;;;19.00;99.90;;;;;;5028051;28;20037;-81
2021/07/25 02:10:50;;;;;;;31.00;26.52;;;18.90;99.90;;;;;;5042872;28;20396;-82
2021/07/25 02:13:19;;;;;;;26.95;22.48;;;19.00;99.90;;;;;;5026090;28;20067;-82
2021/07/25 02:15:46;;;;;;;28.20;24.67;;;19.00;99.90;;;;;;5043847;28;20374;-81
2021/07/25 02:18:13;;;;;;;31.58;28.13;;;19.00;99.90;;;;;;5045979;28;20036;-81
2021/07/25 02:20:41;;;;;;;30.45;26.55;;;19.00;99.90;;;;;;5043227;28;20033;-82
2021/07/25 02:23:08;;;;;;;31.65;27.10;;;19.00;99.90;;;;;;5026614;28;20041;-81
2021/07/25 02:25:34;;;;;;;28.27;24.88;;;18.90;99.90;;;;;;5027996;28;20048;-83
2021/07/25 02:28:01;;;;;;;30.17;27.08;;;18.90;99.90;;;;;;4995756;28;20044;-84
2021/07/25 02:30:27;;;;;;;29.02;25.98;;;18.90;99.90;;;;;;5011239;28;20847;-83
2021/07/25 02:32:54;;;;;;;31.23;27.33;;;18.90;99.90;;;;;;5021191;28;20048;-84
2021/07/25 02:35:20;;;;;;;25.13;22.48;;;18.80;99.90;;;;;;5010372;28;20061;-84
2021/07/25 02:37:46;;;;;;;31.35;26.77;;;18.80;99.90;;;;;;5013860;28;20048;-83
2021/07/25 02:40:13;;;;;;;29.40;26.23;;;18.80;99.90;;;;;;4987157;28;20045;-84
2021/07/25 02:42:39;;;;;;;28.30;24.88;;;18.70;99.90;;;;;;5005899;28;20408;-82
2021/07/25 02:45:06;;;;;;;28.75;25.73;;;18.70;99.90;;;;;;5013602;28;20465;-82
2021/07/25 02:47:32;;;;;;;35.40;30.35;;;18.60;99.90;;;;;;5001892;28;20056;-82
2021/07/25 02:49:59;;;;;;;35.22;31.48;;;18.60;99.90;;;;;;4999505;28;20037;-82
2021/07/25 02:52:25;;;;;;;33.92;28.48;;;18.60;99.90;;;;;;5030166;28;20052;-82
2021/07/25 02:54:52;;;;;;;30.92;26.48;;;18.60;99.90;;;;;;4996761;28;20049;-82
2021/07/25 02:57:18;;;;;;;30.23;26.98;;;18.50;99.90;;;;;;5027964;28;20042;-82
2021/07/25 02:59:45;;;;;;;29.02;25.92;;;18.50;99.90;;;;;;5015051;28;20044;-81
2021/07/25 03:02:11;;;;;;;31.15;26.85;;;18.50;99.90;;;;;;5023812;28;20041;-81
2021/07/25 03:04:37;;;;;;;30.00;26.90;;;18.50;99.90;;;;;;4997941;28;20048;-82
2021/07/25 03:07:04;;;;;;;36.17;31.27;;;18.50;99.90;;;;;;5023666;28;20052;-81
2021/07/25 03:09:30;;;;;;;31.38;28.05;;;18.50;99.90;;;;;;4990469;28;20052;-81
2021/07/25 03:11:57;;;;;;;33.15;29.08;;;18.50;99.90;;;;;;5046471;28;20151;-82
2021/07/25 03:14:23;;;;;;;32.05;26.95;;;18.50;99.90;;;;;;5013716;28;20037;-82
2021/07/25 03:16:50;;;;;;;29.85;26.70;;;18.50;99.90;;;;;;5031012;28;20484;-81
2021/07/25 03:19:16;;;;;;;33.03;28.98;;;18.50;99.90;;;;;;5013753;28;20064;-82
2021/07/25 03:21:43;;;;;;;29.83;26.63;;;18.50;99.90;;;;;;4997444;28;20489;-81
2021/07/25 03:24:09;;;;;;;32.05;27.10;;;18.40;99.90;;;;;;5001890;28;20416;-81
2021/07/25 03:26:35;;;;;;;30.30;26.48;;;18.40;99.90;;;;;;5015694;28;20041;-82
2021/07/25 03:29:02;;;;;;;29.38;26.30;;;18.40;99.90;;;;;;5027439;28;20042;-82
2021/07/25 03:31:28;;;;;;;29.58;26.38;;;18.40;99.90;;;;;;5027965;28;20041;-82
2021/07/25 03:33:55;;;;;;;32.63;28.67;;;18.30;99.90;;;;;;5011901;28;20388;-82
2021/07/25 03:36:22;;;;;;;30.58;26.83;;;18.30;99.90;;;;;;5014309;28;20052;-82
2021/07/25 03:38:49;;;;;;;35.80;31.67;;;18.30;99.90;;;;;;5030365;28;20064;-81
2021/07/25 03:41:15;;;;;;;32.42;28.70;;;18.30;99.90;;;;;;5011643;28;20476;-82
2021/07/25 03:43:42;;;;;;;32.28;28.27;;;18.30;99.90;;;;;;5010477;28;20060;-82
2021/07/25 03:46:09;;;;;;;32.30;28.38;;;18.30;99.90;;;;;;5029486;28;20041;-82
2021/07/25 03:48:36;;;;;;;30.85;27.15;;;18.30;99.90;;;;;;5004115;28;20068;-82
2021/07/25 03:51:02;;;;;;;30.92;27.55;;;18.30;99.90;;;;;;5015968;28;20044;-82
2021/07/25 03:53:29;;;;;;;32.38;27.77;;;18.30;99.90;;;;;;5011955;28;20053;-83
2021/07/25 03:55:55;;;;;;;30.42;27.20;;;18.30;99.90;;;;;;5012896;28;20064;-84
2021/07/25 03:58:22;;;;;;;29.65;26.55;;;18.30;99.90;;;;;;5012222;28;20049;-84
2021/07/25 04:00:48;;;;;;;27.52;24.67;;;18.30;99.90;;;;;;5030322;28;20037;-84
2021/07/25 04:03:14;;;;;;;30.42;25.73;;;18.30;99.90;;;;;;5029979;28;20372;-83
2021/07/25 04:05:41;;;;;;;26.08;23.27;;;18.30;99.90;;;;;;5032459;28;20037;-83
2021/07/25 04:08:11;;;;;;;31.63;26.60;;;18.20;99.90;;;;;;4999264;28;20055;-83
2021/07/25 04:10:42;;;;;;;30.23;27.02;;;18.20;99.90;;;;;;5027712;28;20064;-84
2021/07/25 04:13:10;;;;;;;31.13;27.02;;;18.20;99.90;;;;;;5020697;28;20055;-84
2021/07/25 04:15:41;;;;;;;31.85;28.35;;;18.10;99.90;;;;;;5019042;28;20051;-84
2021/07/25 04:18:08;;;;;;;28.93;24.47;;;18.10;99.90;;;;;;5029510;28;20052;-82
2021/07/25 04:20:35;;;;;;;27.92;25.02;;;18.10;99.90;;;;;;4979202;28;20056;-83
2021/07/25 04:23:03;;;;;;;33.78;26.13;;;18.10;99.90;;;;;;5025876;28;20041;-83
2021/07/25 04:25:31;;;;;;;28.33;25.33;;;18.00;99.90;;;;;;5010794;28;20069;-83
2021/07/25 04:27:59;;;;;;;26.60;22.98;;;18.10;99.90;;;;;;5012376;28;20049;-84
2021/07/25 04:30:28;;;;;;;26.50;23.67;;;18.10;99.90;;;;;;4979968;28;20065;-82
2021/07/25 04:32:55;;;;;;;28.42;23.52;;;18.10;99.90;;;;;;5010855;28;20049;-82
2021/07/25 04:35:22;;;;;;;26.08;23.27;;;18.10;99.90;;;;;;5027746;28;20064;-82
2021/07/25 04:37:51;;;;;;;26.33;23.45;;;18.10;99.90;;;;;;5017006;28;20378;-82
2021/07/25 04:40:19;;;;;;;25.17;21.70;;;18.10;99.90;;;;;;5013164;28;20055;-82
2021/07/25 04:42:51;;;;;;;27.88;22.52;;;18.10;99.90;;;;;;5027992;28;20047;-82
2021/07/25 04:45:48;;;;;;;27.90;24.10;;;18.20;99.90;;;;;;5045140;28;20033;-82
2021/07/25 04:48:36;;;;;;;25.45;21.10;;;18.30;99.90;;;;;;5002671;28;20060;-84
2021/07/25 04:51:07;;;;;;;24.65;21.13;;;18.40;99.90;;;;;;5028608;28;20056;-83
2021/07/25 04:53:43;;;;;;;25.65;22.58;;;18.50;99.90;;;;;;5044790;28;20048;-84
2021/07/25 04:56:13;;;;;;;24.90;21.30;;;18.60;99.90;;;;;;5041517;28;20033;-83
2021/07/25 04:58:53;;;;;;;23.08;20.58;;;18.70;99.90;;;;;;5022736;28;20041;-83
2021/07/25 05:01:26;;;;;;;24.73;22.13;;;18.90;99.90;;;;;;5029423;28;20483;-82
2021/07/25 05:03:53;;;;;;;22.80;20.40;;;19.00;99.90;;;;;;5021149;28;20044;-83
2021/07/25 05:06:22;;;;;;;23.52;21.02;;;19.20;99.90;;;;;;5029410;28;20384;-82
2021/07/25 05:08:49;;;;;;;24.65;22.00;;;19.20;99.90;;;;;;5012751;28;20498;-84
2021/07/25 05:11:25;;;;;;;23.38;20.92;;;19.30;99.90;;;;;;4988232;28;20048;-81
2021/07/25 05:13:55;;;;;;;21.80;19.20;;;19.40;99.90;;;;;;5042809;28;20424;-80
2021/07/25 05:17:03;;;;;;;23.60;20.48;;;19.40;99.90;;;;;;5025930;28;20049;-81
2021/07/25 05:19:47;;;;;;;20.15;17.70;;;19.40;99.90;;;;;;5035135;28;20051;-83
2021/07/25 05:22:20;;;;;;;20.90;18.40;;;19.40;99.90;;;;;;5041987;28;20051;-84
2021/07/25 05:24:47;;;;;;;20.23;18.00;;;19.50;99.90;;;;;;5045216;28;20044;-84
2021/07/25 05:27:21;;;;;;;22.25;18.20;;;19.50;99.90;;;;;;5025851;28;20400;-83
2021/07/25 05:29:49;;;;;;;20.58;17.92;;;19.50;99.90;;;;;;5047271;28;20024;-80
2021/07/25 05:32:16;;;;;;;18.77;16.88;;;19.50;99.90;;;;;;5047380;28;20048;-79
2021/07/25 05:34:43;;;;;;;15.55;13.75;;;19.50;99.90;;;;;;4998414;28;20041;-80
2021/07/25 05:37:09;;;;;;;14.77;12.60;;;19.60;99.90;;;;;;5025902;28;20068;-80
2021/07/25 05:39:35;;;;;;;13.85;11.82;;;19.70;99.90;;;;;;5027172;28;20041;-79
2021/07/25 05:42:02;;;;;;;14.48;12.98;;;19.80;99.90;;;;;;5023674;28;20057;-79
2021/07/25 05:44:31;;;;;;;14.45;12.65;;;19.90;99.90;;;;;;5042843;28;20053;-79
2021/07/25 05:46:58;;;;;;;13.40;11.68;;;20.00;99.90;;;;;;5044098;28;20041;-79
2021/07/25 05:49:25;;;;;;;12.07;10.88;;;20.10;99.90;;;;;;5045499;28;20404;-79
2021/07/25 05:51:53;;;;;;;12.27;10.98;;;20.20;99.90;;;;;;5026099;28;20037;-81
2021/07/25 05:54:20;;;;;;;11.63;10.52;;;20.40;99.90;;;;;;5043539;28;20037;-81
2021/07/25 05:56:46;;;;;;;11.00;9.90;;;20.60;99.90;;;;;;5042008;28;20025;-81
2021/07/25 05:59:13;;;;;;;12.20;10.80;;;20.80;99.90;;;;;;5044785;28;20424;-81
2021/07/25 06:01:40;;;;;;;10.55;9.00;;;21.00;99.90;;;;;;5041962;28;20053;-81
2021/07/25 06:04:07;;;;;;;10.18;8.48;;;21.20;99.90;;;;;;5043087;28;20373;-82
2021/07/25 06:06:34;;;;;;;10.60;9.48;;;21.40;99.90;;;;;;5027485;28;20037;-81
2021/07/25 06:09:03;;;;;;;10.63;9.55;;;21.60;99.90;;;;;;5045623;28;20029;-81
2021/07/25 06:11:30;;;;;;;11.25;8.43;;;21.70;99.90;;;;;;5013698;28;20053;-82
2021/07/25 06:13:57;;;;;;;9.43;8.50;;;21.90;99.90;;;;;;5046502;28;20512;-82
2021/07/25 06:16:24;;;;;;;9.32;8.43;;;22.00;99.90;;;;;;5047524;28;20539;-81
2021/07/25 06:18:51;;;;;;;10.18;8.65;;;22.20;99.90;;;;;;5049235;28;20033;-81
2021/07/25 06:21:18;;;;;;;8.25;7.38;;;22.40;99.90;;;;;;5006721;28;20044;-79
2021/07/25 06:23:50;;;;;;;9.38;8.07;;;22.70;99.90;;;;;;5027938;28;20062;-79
2021/07/25 06:26:17;;;;;;;8.82;7.80;;;22.90;99.30;;;;;;5047504;28;20037;-80
2021/07/25 06:28:45;;;;;;;9.57;8.10;;;22.90;99.00;;;;;;5030279;28;20037;-80
2021/07/25 06:31:12;;;;;;;8.02;7.22;;;22.90;98.90;;;;;;5013173;28;20076;-79
2021/07/25 06:33:39;;;;;;;8.93;6.80;;;22.90;98.80;;;;;;5045765;28;20523;-79
2021/07/25 06:36:10;;;;;;;12.40;8.13;;;22.90;98.50;;;;;;5043773;28;20045;-79
2021/07/25 06:38:38;;;;;;;7.80;6.93;;;22.80;98.40;;;;;;5044582;28;20045;-79
2021/07/25 06:41:05;;;;;;;8.27;7.35;;;22.70;98.40;;;;;;5045311;28;20048;-79
2021/07/25 06:43:32;;;;;;;9.63;7.40;;;22.60;98.40;;;;;;5028679;28;20041;-79
2021/07/25 06:45:58;;;;;;;8.48;7.55;;;22.60;98.40;;;;;;5046936;28;20032;-79
2021/07/25 06:48:31;;;;;;;7.13;6.45;;;22.60;98.30;;;;;;5047091;28;20041;-79
2021/07/25 06:50:58;;;;;;;;;;;22.90;98.20;;;;;;5046801;28;20033;-79
2021/07/25 06:53:27;;;;;;;10.95;6.63;;;23.10;97.80;;;;;;5010700;28;19921;-79
2021/07/25 06:55:55;;;;;;;8.05;7.25;;;23.40;97.40;;;;;;5046488;28;20036;-79
2021/07/25 06:58:22;;;;;;;7.45;6.75;;;23.60;96.90;;;;;;5012657;28;20071;-79
2021/07/25 07:00:49;;;;;;;8.25;6.93;;;23.70;96.50;;;;;;5028683;28;20045;-80
2021/07/25 07:03:19;;;;;;;6.85;6.15;;;23.70;96.10;;;;;;5012113;28;20041;-79
2021/07/25 07:05:46;;;;;;;7.50;6.80;;;23.70;96.20;;;;;;5027646;28;20033;-80
2021/07/25 07:08:12;;;;;;;6.93;5.68;;;23.70;96.10;;;;;;5012637;28;20057;-80
2021/07/25 07:10:41;;;;;;;6.90;6.20;;;23.70;95.90;;;;;;5046581;28;20834;-80
2021/07/25 07:13:11;;;;;;;8.57;6.32;;;23.70;95.80;;;;;;5024467;28;20041;-79
2021/07/25 07:15:40;;;;;;;7.50;6.63;;;23.70;95.70;;;;;;5043157;28;20456;-79
2021/07/25 07:18:08;;;;;;;5.95;4.97;;;23.90;95.50;;;;;;5042142;28;20029;-79
2021/07/25 07:20:34;;;;;;;5.30;4.80;;;23.90;95.50;;;;;;5029013;28;20743;-80
2021/07/25 07:23:05;;;;;;;7.55;5.65;;;24.00;95.40;;;;;;5043878;28;20036;-80
2021/07/25 07:25:37;;;;;;;6.63;5.75;;;24.10;95.10;;;;;;5044108;28;20041;-83
2021/07/25 07:28:04;;;;;;;6.45;4.93;;;24.20;94.70;;;;;;5047232;28;20045;-80
2021/07/25 07:30:31;;;;;;;14.23;5.20;;;24.20;94.50;;;;;;5028212;28;20044;-80
2021/07/25 07:33:14;;;;;;;6.68;5.00;;;24.20;94.60;;;;;;5044715;28;20044;-79
2021/07/25 07:35:41;;;;;;;5.35;4.45;;;24.30;94.60;;;;;;5026628;28;20044;-79
2021/07/25 07:38:09;;;;;;;6.63;5.05;;;24.50;94.30;;;;;;5019511;28;20048;-79
2021/07/25 07:40:37;;;;;;;7.20;5.32;;;24.50;93.90;;;;;;5046686;28;20040;-78
2021/07/25 07:43:05;;;;;;;5.35;4.82;;;24.60;93.90;;;;;;5043534;28;20033;-79
2021/07/25 07:45:33;;;;;;;4.75;3.78;;;24.70;93.80;;;;;;5046176;28;20025;-78
2021/07/25 07:47:59;;;;;;;5.63;4.10;;;24.80;94.00;;;;;;5045128;28;20905;-79
2021/07/25 07:50:26;;;;;;;5.60;4.68;;;24.90;93.50;;;;;;5010998;28;20053;-78
2021/07/25 07:52:52;;;;;;;6.00;4.70;;;25.00;93.40;;;;;;5027552;28;20523;-79
2021/07/25 07:55:19;;;;;;;4.55;3.65;;;25.10;93.00;;;;;;5026545;28;20045;-78
2021/07/25 07:57:46;;;;;;;6.50;4.60;;;25.20;92.90;;;;;;5028546;28;20488;-79
2021/07/25 08:00:13;;;;;;;5.60;4.20;;;25.30;92.50;;;;;;5046366;28;20056;-79
2021/07/25 08:02:45;;;;;;;6.32;4.10;;;25.40;92.20;;;;;;5026794;28;20469;-82
2021/07/25 08:05:12;;;;;;;6.05;4.32;;;25.40;91.90;;;;;;5027380;28;20045;-80
2021/07/25 08:07:41;;;;;;;8.90;6.60;;;25.40;91.70;;;;;;5013067;28;20035;-78
2021/07/25 08:10:09;;;;;;;7.03;5.13;;;25.50;91.70;;;;;;5030642;28;20044;-79
2021/07/25 08:12:35;;;;;;;5.00;4.03;;;25.70;91.70;;;;;;5044173;28;20037;-79
2021/07/25 08:15:08;;;;;;;3.60;2.95;;;25.80;91.30;;;;;;5029077;28;20045;-80
2021/07/25 08:17:34;;;;;;;5.95;4.28;;;25.90;91.20;;;;;;5027081;28;20049;-79
2021/07/25 08:20:01;;;;;;;4.65;4.25;;;25.90;90.30;;;;;;5015487;28;20049;-79
2021/07/25 08:22:29;;;;;;;4.50;3.47;;;25.90;90.00;;;;;;5041757;28;20037;-79
2021/07/25 08:24:55;;;;;;;4.50;3.45;;;25.90;90.20;;;;;;4995341;28;20045;-81
2021/07/25 08:27:22;;;;;;;3.72;2.78;;;26.00;89.80;;;;;;4995122;28;20053;-79
2021/07/25 08:29:48;;;;;;;4.40;3.53;;;26.10;89.90;;;;;;5028428;28;20048;-79
2021/07/25 08:32:19;;;;;;;7.00;3.20;;;26.20;89.60;;;;;;5043172;28;20045;-80
2021/07/25 08:34:46;;;;;;;4.88;3.05;;;26.30;89.60;;;;;;5046467;28;20044;-79
2021/07/25 08:37:12;;;;;;;4.00;2.92;;;26.40;89.50;;;;;;5050397;28;20032;-79
2021/07/25 08:39:39;;;;;;;4.00;2.67;;;26.50;88.70;;;;;;5046211;28;20056;-79
2021/07/25 08:42:08;;;;;;;4.38;3.17;;;26.60;88.90;;;;;;5014583;28;20064;-80
2021/07/25 08:44:51;;;;;;;4.35;3.13;;;26.80;88.50;;;;;;5044251;28;20043;-79
2021/07/25 08:47:38;;;;;;;5.03;3.03;;;26.90;88.00;;;;;;5009730;28;20365;-80
2021/07/25 08:50:10;;;;;;;4.05;2.50;;;27.00;87.30;;;;;;5045205;28;20048;-79
2021/07/25 08:52:51;;;;;;;5.50;3.55;;;27.10;87.10;;;;;;5042381;28;20045;-78
2021/07/25 08:55:18;;;;;;;4.03;3.15;;;27.20;86.80;;;;;;5043693;28;20136;-79
2021/07/25 08:57:48;;;;;;;4.82;2.80;;;27.10;86.60;;;;;;5043928;28;20059;-80
2021/07/25 09:00:17;;;;;;;3.47;3.17;;;27.10;86.60;;;;;;5044775;28;20037;-79
2021/07/25 09:02:45;;;;;;;3.65;2.83;;;27.00;86.40;;;;;;5008615;28;20050;-79
2021/07/25 09:05:12;;;;;;;3.70;2.50;;;27.00;86.50;;;;;;5009265;28;20060;-80
2021/07/25 09:07:45;;;;;;;3.90;2.55;;;26.90;86.30;;;;;;5027872;28;20108;-79
2021/07/25 09:10:16;;;;;;;4.47;3.58;;;26.70;86.80;;;;;;5027172;28;20048;-79
2021/07/25 09:12:43;;;;;;;4.15;3.38;;;26.90;87.00;;;;;;5041600;28;20758;-79
2021/07/25 09:15:14;;;;;;;2.88;2.58;;;27.10;86.70;;;;;;5027462;28;20045;-80
2021/07/25 09:17:41;;;;;;;3.45;2.38;;;27.30;86.60;;;;;;5026792;28;20119;-80
2021/07/25 09:20:07;;;;;;;3.03;2.72;;;27.60;86.10;;;;;;5045663;28;20033;-79
2021/07/25 09:22:34;;;;;;;2.58;2.30;;;27.80;85.20;;;;;;5024650;28;20036;-79
2021/07/25 09:25:01;;;;;;;5.30;3.33;;;27.90;84.70;;;;;;5040334;28;20029;-79
2021/07/25 09:27:27;;;;;;;3.97;3.20;;;28.00;84.10;;;;;;5040679;28;20033;-80
2021/07/25 09:29:54;;;;;;;4.43;2.85;;;28.00;83.40;;;;;;5024625;28;20043;-80
2021/07/25 09:32:21;;;;;;;3.58;3.10;;;27.90;82.90;;;;;;5010526;28;20061;-81
2021/07/25 09:34:49;;;;;;;5.70;3.60;;;28.00;82.90;;;;;;5027697;28;20381;-81
2021/07/25 09:37:18;;;;;;;2.95;2.05;;;28.10;82.40;;;;;;5045861;28;20033;-83
2021/07/25 09:39:46;;;;;;;3.50;2.53;;;28.20;82.70;;;;;;5028488;28;20381;-82
2021/07/25 09:42:13;;;;;;;3.20;2.50;;;28.40;81.30;;;;;;5045388;28;20037;-82
2021/07/25 09:44:51;;;;;;;4.32;3.50;;;28.70;80.60;;;;;;5024904;28;20069;-82
2021/07/25 09:47:27;;;;;;;3.05;1.92;;;28.80;79.50;;;;;;5009103;28;20519;-82
2021/07/25 09:49:54;;;;;;;3.60;2.85;;;28.80;79.50;;;;;;5041754;28;20398;-80
2021/07/25 09:52:35;;;;;;;4.80;2.22;;;28.90;79.30;;;;;;4992939;28;20690;-80
2021/07/25 09:55:05;;;;;;;3.50;2.67;;;29.10;79.20;;;;;;5041661;28;20124;-80
2021/07/25 09:57:33;;;;;;;6.28;5.68;;;29.20;77.60;;;;;;5026257;28;20041;-80
2021/07/25 10:00:11;;;;;;;3.53;2.95;;;29.30;77.20;;;;;;5042827;28;20060;-82
2021/07/25 10:02:47;;;;;;;5.50;2.42;;;29.40;76.40;;;;;;5025281;28;20041;-84
2021/07/25 10:05:15;;;;;;;3.53;3.05;;;29.60;75.90;;;;;;5026208;28;20040;-82
2021/07/25 10:07:43;;;;;;;3.83;2.70;;;29.80;75.20;;;;;;5041578;28;20044;-79
2021/07/25 10:10:13;;;;;;;3.20;2.60;;;30.00;74.90;;;;;;5024449;28;20103;-80
2021/07/25 10:12:41;;;;;;;2.85;2.42;;;30.20;74.00;;;;;;5040310;28;20033;-81
2021/07/25 10:15:10;;;;;;;3.50;2.78;;;30.40;72.00;;;;;;5043523;28;20037;-82
2021/07/25 10:17:41;;;;;;;4.45;3.20;;;30.30;71.60;;;;;;5041210;28;20048;-81
2021/07/25 10:20:10;;;;;;;3.85;2.78;;;30.30;70.80;;;;;;5043083;28;20028;-80
2021/07/25 10:22:38;;;;;;;4.97;3.72;;;30.40;71.40;;;;;;5045380;28;20044;-81
2021/07/25 10:25:09;;;;;;;4.32;3.85;;;30.50;70.90;;;;;;5025475;28;20041;-81
2021/07/25 10:27:36;;;;;;;3.03;2.40;;;30.70;70.10;;;;;;5042742;28;20041;-81
2021/07/25 10:30:11;;;;;;;3.47;2.47;;;30.80;69.80;;;;;;5010746;28;20041;-81
2021/07/25 10:32:39;;;;;;;3.47;3.15;;;30.90;69.80;;;;;;5043803;28;20033;-80
2021/07/25 10:35:10;;;;;;;4.38;3.03;;;31.00;69.50;;;;;;5024520;28;20487;-80
2021/07/25 10:37:38;;;;;;;3.97;3.65;;;30.70;67.70;;;;;;5029812;28;20028;-80
2021/07/25 10:40:07;;;;;;;3.80;2.90;;;30.30;68.50;;;;;;5011421;28;20048;-81
2021/07/25 10:42:40;;;;;;;2.80;2.53;;;30.10;69.30;;;;;;5027680;28;20029;-81
2021/07/25 10:45:10;;;;;;;4.65;4.10;;;29.90;69.80;;;;;;5046917;28;20029;-82
2021/07/25 10:47:37;;;;;;;5.53;3.75;;;29.80;70.00;;;;;;5025511;28;20384;-82
2021/07/25 10:50:08;;;;;;;5.55;4.18;;;29.60;70.60;;;;;;5044351;28;20041;-82
2021/07/25 10:53:02;;;;;;;4.65;3.60;;;29.50;70.40;;;;;;5011359;28;20041;-81
2021/07/25 10:55:52;;;;;;;5.72;3.50;;;29.20;71.00;;;;;;5022680;28;20045;-81
2021/07/25 10:58:23;;;;;;;5.18;3.00;;;29.00;71.90;;;;;;5028181;28;20041;-81
2021/07/25 11:00:54;;;;;;;3.72;3.42;;;28.90;72.60;;;;;;5009722;28;20043;-81
2021/07/25 11:03:35;;;;;;;4.25;3.13;;;28.80;72.80;;;;;;5043260;28;20059;-81
2021/07/25 11:06:07;;;;;;;4.05;2.65;;;28.80;73.20;;;;;;5012594;28;20512;-79
2021/07/25 11:08:45;;;;;;;3.60;3.08;;;28.80;73.20;;;;;;5029993;28;20029;-82
2021/07/25 11:11:29;;;;;;;4.30;3.20;;;28.90;73.10;;;;;;5012113;28;20037;-81
2021/07/25 11:13:57;;;;;;;3.38;2.90;;;29.00;73.00;;;;;;5042108;28;20366;-81
2021/07/25 11:16:29;;;;;;;3.90;3.50;;;29.50;72.90;;;;;;5001183;28;20049;-79
2021/07/25 11:19:15;;;;;;;4.53;3.70;;;29.90;71.60;;;;;;5030116;28;20060;-79
2021/07/25 11:21:50;;;;;;;5.70;3.67;;;29.90;70.50;;;;;;5040739;28;20049;-82
2021/07/25 11:24:20;;;;;;;12.95;2.70;;;29.70;70.10;;;;;;5050244;28;20496;-87
2021/07/25 11:26:49;;;;;;;4.55;2.97;;;29.50;72.60;;;;;;5023590;28;20068;-87
2021/07/25 11:29:30;;;;;;;5.20;3.40;;;29.30;74.60;;;;;;5043588;28;20036;-85
2021/07/25 11:31:57;;;;;;;5.13;2.75;;;29.30;76.80;;;;;;5028920;28;20048;-86
2021/07/25 11:34:30;;;;;;;3.67;3.05;;;29.30;77.50;;;;;;5025616;28;20395;-84
2021/07/25 11:37:02;;;;;;;4.88;3.78;;;29.40;77.10;;;;;;5023328;28;20052;-84
2021/07/25 11:39:30;;;;;;;3.92;3.30;;;29.30;76.90;;;;;;5041003;28;20049;-86
2021/07/25 11:41:57;;;;;;;4.80;3.17;;;29.30;77.10;;;;;;5029011;28;20488;-82
2021/07/25 11:44:31;;;;;;;4.40;3.83;;;29.20;76.90;;;;;;5045694;28;20029;-82
2021/07/25 11:46:59;;;;;;;4.13;3.42;;;29.10;76.80;;;;;;5023513;28;20072;-82
2021/07/25 11:49:30;;;;;;;5.50;3.97;;;29.60;77.30;;;;;;5010908;28;20095;-83
2021/07/25 11:52:01;;;;;;;7.40;6.22;;;30.60;76.10;;;;;;5037978;28;20029;-83
2021/07/25 11:54:34;;;;;;;3.92;3.53;;;31.70;73.10;;;;;;5038928;28;20037;-83
2021/07/25 11:57:07;;;;;;;4.63;2.78;;;32.50;69.90;;;;;;5026476;28;20044;-82
2021/07/25 11:59:41;;;;;;;6.10;3.55;;;32.80;67.10;;;;;;5005836;28;20061;-83
2021/07/25 12:02:09;;;;;;;5.35;2.88;;;32.60;66.30;;;;;;5010262;28;20036;-83
2021/07/25 12:04:43;;;;;;;3.15;2.70;;;32.10;65.70;;;;;;5040307;28;20037;-83
2021/07/25 12:07:17;;;;;;;4.03;2.80;;;31.70;66.40;;;;;;5034828;28;20039;-82
2021/07/25 12:09:52;;;;;;;3.92;3.20;;;31.50;66.00;;;;;;5012570;28;20045;-86
2021/07/25 12:12:24;;;;;;;4.55;2.50;;;31.90;65.60;;;;;;5006739;28;20041;-84
2021/07/25 12:14:52;;;;;;;3.42;2.38;;;32.30;64.00;;;;;;5020468;28;20033;-83
2021/07/25 12:17:45;;;;;;;5.78;2.40;;;32.60;63.00;;;;;;5026668;28;20480;-84
2021/07/25 12:20:13;;;;;;;2.53;2.15;;;32.80;61.70;;;;;;5042271;28;20052;-84
2021/07/25 12:22:57;;;;;;;2.28;1.70;;;32.90;61.20;;;;;;5010755;28;20032;-84
2021/07/25 12:25:25;;;;;;;5.03;2.70;;;32.80;61.40;;;;;;5009768;28;20040;-83
2021/07/25 12:28:09;;;;;;;3.20;2.50;;;33.10;61.10;;;;;;5039141;28;20052;-85
2021/07/25 12:30:40;;;;;;;3.15;2.25;;;33.60;60.00;;;;;;5011229;28;20044;-84
2021/07/25 12:33:07;;;;;;;5.30;2.03;;;34.10;59.30;;;;;;5009121;28;20040;-82
2021/07/25 12:35:35;;;;;;;2.15;1.58;;;34.60;57.60;;;;;;4992480;28;20077;-82
2021/07/25 12:38:11;;;;;;;3.35;1.77;;;34.20;56.70;;;;;;5022279;28;20048;-79
2021/07/25 12:40:52;;;;;;;4.53;1.90;;;33.70;57.20;;;;;;5039128;28;20464;-79
2021/07/25 12:43:23;;;;;;;3.83;1.75;;;33.00;57.80;;;;;;5036611;28;20037;-79
2021/07/25 12:45:54;;;;;;;4.35;1.48;;;32.50;58.60;;;;;;5040903;28;20492;-77
2021/07/25 12:48:20;;;;;;;4.70;1.92;;;32.00;59.30;;;;;;5038585;28;20033;-78
2021/07/25 12:53:32;;;;;;;3.38;1.70;;;31.40;60.40;;;;;;5038404;28;20049;-79